Terminal Aerodrome Forecast
Issued by NWS Charleston, WV

Current Version | Previous Version | Graphics & Text | Print | Product List | Glossary On
Versions: 1 2 3 4 5 6 7 8 9 10 11 12 13 14 15 16 17 18 19 20 21 22 23 24 25 26 27 28 29 30 31 32 33 34 35 36 37 38 39 40
000
FTUS41 KRLX 281427 AAB
TAFHTS
TAF AMD
KHTS 281427Z 2814/2912 23006KT 4SM SHRA BR SCT012 OVC025
      TEMPO 2814/2818 2SM TSRA BKN012CB
     FM290100 00000KT 6SM SHRA BR OVC040
     FM290500 VRB03KT P6SM BKN070=

USA.gov is the U.S. government's official web portal to all federal, state and local government web resources and services.